createdAt,value
2022-08-08T00:00:53.211Z,71.88
2022-08-08T00:03:32.228Z,70.91
2022-08-08T00:06:06.018Z,70.72
2022-08-08T00:08:53.336Z,70.63
2022-08-08T00:11:46.964Z,70.70
2022-08-08T00:14:57.239Z,71.77
2022-08-08T00:18:02.279Z,73.78
2022-08-08T00:20:49.582Z,74.33
2022-08-08T00:23:43.305Z,73.72
2022-08-08T00:26:26.136Z,74.03
2022-08-08T00:29:03.601Z,74.53
2022-08-08T00:32:20.846Z,75.51
2022-08-08T00:35:04.157Z,76.21
2022-08-08T00:37:48.325Z,76.82
2022-08-08T00:41:12.531Z,77.56
2022-08-08T00:43:46.112Z,78.04
2022-08-08T00:46:56.968Z,79.15
2022-08-08T00:49:59.594Z,78.80
2022-08-08T00:52:48.917Z,76.80
2022-08-08T00:55:54.679Z,77.03
2022-08-08T00:58:34.599Z,77.56
2022-08-08T01:01:37.756Z,77.82
2022-08-08T01:04:18.371Z,78.23
2022-08-08T01:06:57.338Z,78.30
2022-08-08T01:09:53.218Z,78.06
2022-08-08T01:12:29.487Z,78.14
2022-08-08T01:15:43.397Z,79.39
2022-08-08T01:18:50.647Z,78.29
2022-08-08T01:21:34.581Z,79.01
2022-08-08T01:24:13.839Z,78.82
2022-08-08T01:26:49.802Z,77.95
2022-08-08T01:29:35.732Z,77.76
2022-08-08T01:32:55.529Z,77.31
2022-08-08T01:35:44.143Z,76.98
2022-08-08T01:38:23.264Z,76.78
2022-08-08T01:41:15.866Z,76.85
2022-08-08T01:43:50.861Z,76.73
2022-08-08T01:46:47.274Z,76.41
2022-08-08T01:49:23.443Z,77.44
2022-08-08T01:52:51.125Z,79.60
2022-08-08T01:56:28.145Z,78.73
2022-08-08T01:58:38.575Z,80.07
2022-08-08T02:01:21.846Z,80.40
2022-08-08T02:04:12.926Z,80.41
2022-08-08T02:06:59.808Z,81.08
2022-08-08T02:10:01.728Z,80.67
2022-08-08T02:12:49.515Z,81.25
2022-08-08T02:15:38.484Z,82.01
2022-08-08T02:18:19.047Z,84.16
2022-08-08T02:21:20.134Z,84.31
2022-08-08T02:24:02.875Z,84.65
2022-08-08T02:26:39.569Z,84.53
2022-08-08T02:29:26.557Z,83.96
2022-08-08T02:32:22.905Z,85.68
2022-08-08T02:35:07.705Z,85.87
2022-08-08T02:38:09.754Z,86.51
2022-08-08T02:40:39.843Z,86.81
2022-08-08T02:44:37.275Z,86.77
2022-08-08T02:46:53.817Z,86.26
2022-08-08T02:49:35.840Z,85.51
2022-08-08T02:52:51.689Z,85.06
2022-08-08T02:55:38.171Z,85.70
2022-08-08T02:58:15.027Z,88.53
2022-08-08T03:00:57.360Z,88.52
2022-08-08T03:05:00.679Z,89.34
2022-08-08T03:06:48.330Z,89.27
2022-08-08T03:09:52.573Z,88.47
2022-08-08T03:12:36.776Z,89.12
2022-08-08T03:16:00.784Z,88.82
2022-08-08T03:18:59.726Z,86.81
2022-08-08T03:21:40.676Z,85.93
2022-08-08T03:24:08.320Z,84.19
2022-08-08T03:26:43.086Z,81.89
2022-08-08T03:29:20.973Z,81.33
2022-08-08T03:32:36.388Z,79.33
2022-08-08T03:35:10.254Z,78.81
2022-08-08T03:38:54.392Z,78.42
2022-08-08T03:40:29.369Z,77.67
2022-08-08T03:42:58.802Z,77.08
2022-08-08T03:46:06.015Z,77.03
2022-08-08T03:49:09.547Z,77.25
2022-08-08T03:51:19.492Z,77.03
2022-08-08T03:54:05.292Z,77.20
2022-08-08T03:56:34.646Z,77.30
2022-08-08T03:59:02.689Z,76.76
2022-08-08T04:02:13.234Z,76.58
2022-08-08T04:04:30.469Z,76.50
2022-08-08T04:07:01.044Z,77.28
2022-08-08T04:09:58.786Z,77.17
2022-08-08T04:12:16.185Z,77.05
2022-08-08T04:14:45.355Z,77.48
2022-08-08T04:17:15.597Z,77.47
2022-08-08T04:19:59.644Z,77.43
2022-08-08T04:22:30.450Z,77.02
2022-08-08T04:24:58.300Z,76.63
2022-08-08T04:27:42.859Z,76.71
2022-08-08T04:30:17.725Z,75.83
2022-08-08T04:32:48.040Z,76.13
2022-08-08T04:35:17.273Z,76.43
2022-08-08T04:37:44.671Z,75.94
2022-08-08T04:40:13.061Z,76.22
2022-08-08T04:42:46.847Z,76.04
2022-08-08T04:45:27.748Z,76.04
2022-08-08T04:48:00.119Z,76.22
2022-08-08T04:50:34.376Z,75.83
2022-08-08T04:53:13.869Z,75.85
2022-08-08T04:55:56.243Z,75.60
2022-08-08T04:58:23.776Z,76.00
2022-08-08T05:00:52.185Z,76.08
2022-08-08T05:04:10.215Z,74.77
2022-08-08T05:06:13.573Z,74.40
2022-08-08T05:08:52.023Z,74.37
2022-08-08T05:11:22.580Z,74.29
2022-08-08T05:13:58.126Z,73.96
2022-08-08T05:16:55.153Z,73.58
2022-08-08T05:20:11.230Z,72.99
2022-08-08T05:22:06.005Z,72.42
2022-08-08T05:24:34.703Z,72.71
2022-08-08T05:27:05.042Z,72.73
2022-08-08T05:29:31.970Z,72.10
2022-08-08T05:32:09.136Z,72.48
2022-08-08T05:34:42.189Z,72.30
2022-08-08T05:37:18.568Z,71.99
2022-08-08T05:39:54.548Z,71.24
2022-08-08T05:42:43.735Z,70.88
2022-08-08T05:45:25.159Z,70.40
2022-08-08T05:48:01.641Z,70.24
2022-08-08T05:50:36.601Z,70.45
2022-08-08T05:53:53.863Z,69.84
2022-08-08T05:56:09.840Z,69.64
2022-08-08T05:58:57.381Z,66.68
2022-08-08T06:01:52.586Z,65.77
2022-08-08T06:04:24.321Z,66.01
2022-08-08T06:06:53.677Z,65.91
2022-08-08T06:09:58.300Z,65.20
2022-08-08T06:12:18.471Z,65.31
2022-08-08T06:14:57.907Z,64.05
2022-08-08T06:17:50.201Z,64.02
2022-08-08T06:20:14.152Z,63.09
2022-08-08T06:22:43.208Z,63.21
2022-08-08T06:25:10.469Z,63.37
2022-08-08T06:27:48.342Z,63.76
2022-08-08T06:30:20.269Z,63.12
2022-08-08T06:33:00.938Z,62.32
2022-08-08T06:36:06.336Z,61.93
2022-08-08T06:38:27.795Z,61.75
2022-08-08T06:41:05.592Z,62.59
2022-08-08T06:43:37.586Z,62.17
2022-08-08T06:46:09.106Z,61.07
2022-08-08T06:48:39.664Z,61.03
2022-08-08T06:51:11.171Z,61.19
2022-08-08T06:53:40.080Z,60.70
2022-08-08T06:56:23.172Z,60.80
2022-08-08T06:58:50.162Z,60.23
2022-08-08T07:02:16.720Z,59.94
2022-08-08T07:04:37.034Z,58.61
2022-08-08T07:07:00.646Z,58.49
2022-08-08T07:09:56.575Z,57.78
2022-08-08T07:13:13.810Z,54.87
2022-08-08T07:16:04.422Z,55.57
2022-08-08T07:18:43.379Z,56.67
2022-08-08T07:21:19.291Z,54.80
2022-08-08T07:24:03.558Z,53.72
2022-08-08T07:26:37.915Z,53.00
2022-08-08T07:29:08.281Z,52.58
2022-08-08T07:31:40.602Z,50.27
2022-08-08T07:34:10.850Z,50.52
2022-08-08T07:36:50.445Z,49.42
2022-08-08T07:39:55.909Z,51.41
2022-08-08T07:42:18.853Z,51.42
2022-08-08T07:44:48.013Z,50.04
2022-08-08T07:47:18.426Z,49.37
2022-08-08T07:49:57.556Z,50.01
2022-08-08T07:52:27.335Z,50.73
2022-08-08T07:55:01.002Z,50.79
2022-08-08T07:57:58.785Z,51.25
2022-08-08T08:00:33.514Z,53.06
2022-08-08T08:03:23.268Z,52.68
2022-08-08T08:05:53.143Z,51.54
2022-08-08T08:08:26.374Z,51.12
2022-08-08T08:10:57.507Z,49.76
2022-08-08T08:13:42.627Z,50.31
2022-08-08T08:16:28.923Z,50.23
2022-08-08T08:19:09.177Z,49.04
2022-08-08T08:21:52.501Z,49.59
2022-08-08T08:24:30.404Z,50.53
2022-08-08T08:26:58.739Z,49.78
2022-08-08T08:29:28.029Z,48.59
2022-08-08T08:31:57.823Z,48.13
2022-08-08T08:34:31.828Z,48.37
2022-08-08T08:37:00.799Z,47.36
2022-08-08T08:40:00.314Z,46.28
2022-08-08T08:42:31.999Z,46.82
2022-08-08T08:45:21.527Z,45.66
2022-08-08T08:47:55.053Z,47.12
2022-08-08T08:50:33.975Z,47.62
2022-08-08T08:53:27.481Z,46.66
2022-08-08T08:56:01.077Z,47.70
2022-08-08T08:58:42.240Z,47.13
2022-08-08T09:01:13.521Z,46.98
2022-08-08T09:03:50.653Z,46.62
2022-08-08T09:06:34.115Z,46.38
2022-08-08T09:09:26.487Z,46.33
2022-08-08T09:12:08.046Z,45.96
2022-08-08T09:14:42.295Z,45.17
2022-08-08T09:17:18.271Z,45.45
2022-08-08T09:21:59.246Z,46.80
2022-08-08T09:22:35.794Z,46.52
2022-08-08T09:25:05.742Z,46.82
2022-08-08T09:27:56.894Z,46.09
2022-08-08T09:30:26.804Z,46.96
2022-08-08T09:33:54.293Z,46.74
2022-08-08T09:35:49.559Z,46.66
2022-08-08T09:38:53.666Z,46.83
2022-08-08T09:42:14.173Z,46.93
2022-08-08T09:44:34.385Z,45.82
2022-08-08T09:47:26.028Z,46.87
2022-08-08T09:50:01.486Z,48.55
2022-08-08T09:52:56.267Z,48.73
2022-08-08T09:56:03.199Z,48.97
2022-08-08T09:58:28.002Z,48.59
2022-08-08T10:01:14.310Z,47.85
2022-08-08T10:04:02.464Z,47.63
2022-08-08T10:06:32.597Z,47.88
2022-08-08T10:09:02.935Z,46.72
2022-08-08T10:12:27.747Z,45.15
2022-08-08T10:14:27.683Z,44.41
2022-08-08T10:17:57.478Z,43.97
2022-08-08T10:20:00.057Z,44.13
2022-08-08T10:22:29.706Z,42.94
2022-08-08T10:25:04.884Z,40.75
2022-08-08T10:27:43.299Z,41.22
2022-08-08T10:30:16.208Z,41.28
2022-08-08T10:33:00.763Z,42.04
2022-08-08T10:36:08.314Z,43.17
2022-08-08T10:38:20.561Z,43.32
2022-08-08T10:40:53.268Z,42.32
2022-08-08T10:43:23.037Z,43.49
2022-08-08T10:45:57.043Z,42.94
2022-08-08T10:48:56.726Z,42.34
2022-08-08T10:51:31.679Z,41.12
2022-08-08T10:54:21.344Z,41.37
2022-08-08T10:57:04.238Z,41.23
2022-08-08T10:59:39.669Z,39.60
2022-08-08T11:02:09.182Z,38.91
2022-08-08T11:04:53.298Z,39.23
2022-08-08T11:08:31.565Z,40.55
2022-08-08T11:10:28.766Z,41.97
2022-08-08T11:13:28.194Z,41.84
2022-08-08T11:15:52.363Z,41.83
2022-08-08T11:18:30.497Z,42.33
2022-08-08T11:21:09.019Z,42.04
2022-08-08T11:23:41.946Z,43.50
2022-08-08T11:26:12.778Z,43.19
2022-08-08T11:28:47.253Z,43.20
2022-08-08T11:31:20.881Z,43.06
2022-08-08T11:34:01.968Z,41.88
2022-08-08T11:36:36.978Z,42.69
2022-08-08T11:39:05.819Z,44.31
2022-08-08T11:41:38.996Z,44.27
2022-08-08T11:44:10.978Z,43.94
2022-08-08T11:46:40.009Z,44.56
2022-08-08T11:49:17.232Z,44.89
2022-08-08T11:51:50.045Z,45.39
2022-08-08T11:54:34.271Z,45.38
2022-08-08T11:57:17.281Z,46.76
2022-08-08T12:00:01.562Z,47.08
2022-08-08T12:02:33.697Z,48.30
2022-08-08T12:05:12.251Z,48.48
2022-08-08T12:07:51.112Z,48.96
2022-08-08T12:10:23.498Z,48.04
2022-08-08T12:13:04.204Z,49.04
2022-08-08T12:15:41.872Z,50.61
2022-08-08T12:18:24.681Z,50.61
2022-08-08T12:20:59.480Z,51.16
2022-08-08T12:23:43.173Z,51.79
2022-08-08T12:26:27.721Z,52.34
2022-08-08T12:29:21.295Z,52.10
2022-08-08T12:32:02.679Z,52.14
2022-08-08T12:34:36.391Z,51.35
2022-08-08T12:37:08.875Z,52.20
2022-08-08T12:40:01.396Z,50.41
2022-08-08T12:42:26.583Z,50.27
2022-08-08T12:45:58.873Z,50.20
2022-08-08T12:48:09.681Z,50.33
2022-08-08T12:50:48.438Z,50.86
2022-08-08T12:53:30.002Z,50.66
2022-08-08T12:56:18.040Z,50.45
2022-08-08T12:58:49.733Z,50.99
2022-08-08T13:01:16.927Z,50.88
2022-08-08T13:03:52.207Z,51.36
2022-08-08T13:06:20.555Z,51.63
2022-08-08T13:08:53.841Z,52.38
2022-08-08T13:11:28.669Z,52.10
2022-08-08T13:14:15.929Z,51.72
2022-08-08T13:16:43.907Z,52.41
2022-08-08T13:19:17.949Z,50.83
2022-08-08T13:21:53.229Z,49.66
2022-08-08T13:24:42.659Z,50.00
2022-08-08T13:27:18.643Z,49.42
2022-08-08T13:30:00.349Z,49.55
2022-08-08T13:32:30.690Z,49.62
2022-08-08T13:34:59.462Z,49.42
2022-08-08T13:38:05.050Z,49.97
2022-08-08T13:40:26.566Z,50.11
2022-08-08T13:42:55.574Z,49.79
2022-08-08T13:45:24.292Z,50.40
2022-08-08T13:47:58.615Z,50.46
2022-08-08T13:50:37.057Z,50.59
2022-08-08T13:53:24.440Z,50.60
2022-08-08T13:56:02.742Z,50.26
2022-08-08T13:58:30.346Z,50.73
2022-08-08T14:00:57.677Z,49.96
2022-08-08T14:03:53.921Z,50.25
2022-08-08T14:06:32.418Z,48.77
2022-08-08T14:09:00.774Z,48.17
2022-08-08T14:11:47.915Z,47.79
2022-08-08T14:14:20.701Z,47.79
2022-08-08T14:16:52.506Z,48.15
2022-08-08T14:19:57.887Z,47.99
2022-08-08T14:22:18.528Z,48.16
2022-08-08T14:25:00.178Z,48.42
2022-08-08T14:27:34.815Z,48.69
2022-08-08T14:30:18.095Z,48.39
2022-08-08T14:32:54.841Z,48.56
2022-08-08T14:35:35.446Z,48.95
2022-08-08T14:38:34.440Z,49.70
2022-08-08T14:40:59.226Z,49.28
2022-08-08T14:44:02.335Z,48.78
2022-08-08T14:46:18.504Z,49.63
2022-08-08T14:48:52.568Z,49.67
2022-08-08T14:51:47.063Z,50.00
2022-08-08T14:54:16.227Z,49.97
2022-08-08T14:56:57.287Z,49.86
2022-08-08T14:59:44.665Z,49.96
2022-08-08T15:02:15.377Z,50.10
2022-08-08T15:04:43.419Z,50.14
2022-08-08T15:07:22.646Z,50.09
2022-08-08T15:09:51.653Z,50.66
2022-08-08T15:12:27.226Z,51.06
2022-08-08T15:14:55.583Z,50.02
2022-08-08T15:17:23.373Z,50.37
2022-08-08T15:19:51.732Z,50.83
2022-08-08T15:22:33.055Z,51.15
2022-08-08T15:25:01.200Z,50.93
2022-08-08T15:28:04.079Z,51.29
2022-08-08T15:30:15.540Z,51.47
2022-08-08T15:32:46.691Z,51.73
2022-08-08T15:35:16.153Z,51.19
2022-08-08T15:37:43.196Z,51.80
2022-08-08T15:40:11.348Z,51.03
2022-08-08T15:42:47.580Z,51.08
2022-08-08T15:45:16.818Z,51.39
2022-08-08T15:48:05.294Z,51.38
2022-08-08T15:50:54.579Z,51.55
2022-08-08T15:53:23.822Z,51.56
2022-08-08T15:55:53.256Z,50.94
2022-08-08T15:58:20.147Z,50.50
2022-08-08T16:00:55.616Z,51.54
2022-08-08T16:03:22.473Z,50.46
2022-08-08T16:06:00.961Z,50.56
2022-08-08T16:08:28.619Z,50.41
2022-08-08T16:13:10.233Z,50.06
2022-08-08T16:13:45.139Z,50.82
2022-08-08T16:16:18.019Z,50.46
2022-08-08T16:18:56.996Z,50.75
2022-08-08T16:21:31.517Z,50.23
2022-08-08T16:24:04.913Z,50.28
2022-08-08T16:26:35.747Z,50.33
2022-08-08T16:29:37.302Z,49.99
2022-08-08T16:32:13.517Z,50.03
2022-08-08T16:34:48.158Z,50.06
2022-08-08T16:37:16.167Z,50.06
2022-08-08T16:39:59.676Z,50.43
2022-08-08T16:42:30.265Z,50.32
2022-08-08T16:44:59.520Z,50.74
2022-08-08T16:47:40.590Z,50.59
2022-08-08T16:50:14.008Z,51.46
2022-08-08T16:55:02.368Z,51.26
2022-08-08T16:55:55.776Z,51.99
2022-08-08T16:58:20.751Z,52.54
2022-08-08T17:00:48.792Z,52.42
2022-08-08T17:03:25.533Z,52.65
2022-08-08T17:06:36.421Z,52.57
2022-08-08T17:08:54.527Z,52.89
2022-08-08T17:11:21.533Z,53.53
2022-08-08T17:14:00.759Z,53.66
2022-08-08T17:16:29.391Z,53.79
2022-08-08T17:18:56.760Z,54.26
2022-08-08T17:21:26.013Z,54.27
2022-08-08T17:24:01.947Z,54.98
2022-08-08T17:26:30.784Z,55.04
2022-08-08T17:29:04.533Z,54.94
2022-08-08T17:31:43.428Z,55.39
2022-08-08T17:34:48.865Z,55.66
2022-08-08T17:37:09.047Z,56.32
2022-08-08T17:40:04.740Z,56.13
2022-08-08T17:42:25.281Z,56.69
2022-08-08T17:44:53.103Z,56.57
2022-08-08T17:47:23.736Z,56.50
2022-08-08T17:50:01.187Z,56.99
2022-08-08T17:52:34.328Z,57.28
2022-08-08T17:55:05.790Z,57.01
2022-08-08T17:57:50.406Z,56.85
2022-08-08T18:00:25.982Z,56.57
2022-08-08T18:03:08.657Z,56.80
2022-08-08T18:05:48.243Z,56.39
2022-08-08T18:08:25.144Z,56.48
2022-08-08T18:11:17.080Z,56.56
2022-08-08T18:13:47.808Z,56.44
2022-08-08T18:16:20.184Z,56.45
2022-08-08T18:18:52.829Z,56.42
2022-08-08T18:21:34.668Z,56.40
2022-08-08T18:24:17.606Z,56.52
2022-08-08T18:26:54.509Z,56.53
2022-08-08T18:29:33.259Z,56.44
2022-08-08T18:32:04.009Z,56.65
2022-08-08T18:34:33.009Z,57.01
2022-08-08T18:37:06.395Z,56.93
2022-08-08T18:39:36.634Z,57.01
2022-08-08T18:42:06.704Z,57.20
2022-08-08T18:44:41.988Z,58.47
2022-08-08T18:47:08.934Z,59.38
2022-08-08T18:49:57.235Z,58.94
2022-08-08T18:52:24.208Z,58.96
2022-08-08T18:54:59.610Z,59.18
2022-08-08T18:57:40.780Z,58.91
2022-08-08T19:00:16.941Z,57.98
2022-08-08T19:02:56.019Z,56.83
2022-08-08T19:05:32.376Z,57.01
2022-08-08T19:08:25.157Z,57.10
2022-08-08T19:10:59.468Z,57.36
2022-08-08T19:13:52.860Z,57.29
2022-08-08T19:16:19.480Z,57.44
2022-08-08T19:18:54.491Z,57.66
2022-08-08T19:21:30.291Z,57.54
2022-08-08T19:23:58.763Z,57.34
2022-08-08T19:26:30.155Z,57.30
2022-08-08T19:28:59.177Z,57.29
2022-08-08T19:31:31.405Z,57.96
2022-08-08T19:34:29.911Z,57.65
2022-08-08T19:36:58.445Z,58.04
2022-08-08T19:39:30.726Z,58.17
2022-08-08T19:42:04.675Z,58.35
2022-08-08T19:44:43.158Z,58.27
2022-08-08T19:47:14.066Z,58.85
2022-08-08T19:49:43.400Z,58.29
2022-08-08T19:52:34.629Z,58.32
2022-08-08T19:55:12.812Z,58.39
2022-08-08T19:57:43.805Z,58.77
2022-08-08T20:00:29.935Z,58.52
2022-08-08T20:02:58.188Z,59.33
2022-08-08T20:06:14.400Z,59.49
2022-08-08T20:08:29.419Z,60.78
2022-08-08T20:11:00.177Z,63.70
2022-08-08T20:14:11.806Z,64.79
2022-08-08T20:16:15.503Z,65.06
2022-08-08T20:18:53.072Z,65.72
2022-08-08T20:21:25.786Z,65.92
2022-08-08T20:23:57.651Z,66.36
2022-08-08T20:26:30.095Z,69.37
2022-08-08T20:29:03.107Z,71.05
2022-08-08T20:32:07.475Z,72.67
2022-08-08T20:34:30.678Z,73.89
2022-08-08T20:37:00.691Z,75.28
2022-08-08T20:39:39.699Z,76.32
2022-08-08T20:42:15.733Z,77.59
2022-08-08T20:44:42.912Z,78.65
2022-08-08T20:47:23.016Z,78.86
2022-08-08T20:49:58.089Z,79.50
2022-08-08T20:52:27.653Z,79.48
2022-08-08T20:54:58.447Z,78.53
2022-08-08T20:57:27.152Z,77.31
2022-08-08T20:59:56.126Z,78.69
2022-08-08T21:02:26.143Z,79.24
2022-08-08T21:05:01.212Z,80.76
2022-08-08T21:07:31.147Z,83.02
2022-08-08T21:10:15.080Z,82.87
2022-08-08T21:12:46.050Z,83.98
2022-08-08T21:15:16.746Z,84.01
2022-08-08T21:18:01.369Z,84.57
2022-08-08T21:20:34.180Z,84.11
2022-08-08T21:23:02.737Z,83.38
2022-08-08T21:25:36.079Z,82.33
2022-08-08T21:28:14.482Z,81.58
2022-08-08T21:30:45.158Z,80.12
2022-08-08T21:33:16.319Z,78.79
2022-08-08T21:36:17.740Z,77.11
2022-08-08T21:38:30.190Z,75.90
2022-08-08T21:40:58.045Z,75.34
2022-08-08T21:43:33.431Z,74.77
2022-08-08T21:48:20.287Z,74.50
2022-08-08T21:48:54.545Z,73.57
2022-08-08T21:54:17.532Z,72.98
2022-08-08T21:54:34.917Z,71.89
2022-08-08T21:57:00.950Z,70.95
2022-08-08T22:00:01.776Z,70.46
2022-08-08T22:02:16.151Z,69.46
2022-08-08T22:04:46.655Z,69.79
2022-08-08T22:07:16.293Z,71.82
2022-08-08T22:09:43.759Z,72.94
2022-08-08T22:12:16.843Z,73.82
2022-08-08T22:14:47.425Z,73.76
2022-08-08T22:17:18.390Z,74.24
2022-08-08T22:20:10.957Z,74.96
2022-08-08T22:22:38.105Z,74.96
2022-08-08T22:25:17.743Z,75.04
2022-08-08T22:28:02.852Z,73.61
2022-08-08T22:30:41.146Z,72.58
2022-08-08T22:33:22.247Z,74.64
2022-08-08T22:36:04.098Z,80.78
2022-08-08T22:38:39.357Z,82.46
2022-08-08T22:41:21.239Z,83.46
2022-08-08T22:44:02.303Z,82.74
2022-08-08T22:46:33.157Z,82.31
2022-08-08T22:49:00.667Z,81.88
2022-08-08T22:51:29.090Z,82.40
2022-08-08T22:54:30.811Z,81.42
2022-08-08T22:56:43.715Z,82.48
2022-08-08T22:59:18.619Z,83.20
2022-08-08T23:02:02.789Z,82.62
2022-08-08T23:04:32.459Z,81.46
2022-08-08T23:07:02.772Z,81.33
2022-08-08T23:09:31.181Z,81.38
2022-08-08T23:12:27.796Z,80.26
2022-08-08T23:14:59.917Z,81.00
2022-08-08T23:17:46.832Z,84.14
2022-08-08T23:20:21.154Z,84.38
2022-08-08T23:22:55.172Z,84.61
2022-08-08T23:25:22.148Z,84.97
2022-08-08T23:27:49.264Z,83.80
2022-08-08T23:30:22.554Z,83.41
2022-08-08T23:32:50.861Z,83.18
2022-08-08T23:35:18.984Z,84.20
2022-08-08T23:38:03.189Z,87.63
2022-08-08T23:40:31.040Z,86.78
2022-08-08T23:42:58.095Z,86.93
2022-08-08T23:48:59.779Z,85.35
2022-08-08T23:49:03.022Z,85.77
2022-08-08T23:51:03.580Z,85.47
2022-08-08T23:54:05.855Z,85.32
2022-08-08T23:56:23.898Z,85.28
2022-08-08T23:59:00.049Z,84.55
